KSVN/SVN METAR and TAF weather

Enter ICAO airport designator
Station Type Date Time Source
KSVN METAR 2019/02/22 23:56 UTC NOAA

KSVN 222356Z AUTO 07014G20KT 10SM OVC004 16/14 A3018 RMK AO2 CIG 003 RWY28 SLPNO T01550140 10293 20155 52028 FZRANO $


Station Type Date Time Source
KSVN Decoded METAR 2019/02/22 23:56 UTC NOAA

Hunter U. S. Army Airfield , GA, United States (KSVN) 32-01N 081-09W
Feb 22, 2019 - 06:56 PM EST / 2019.02.22 2356 UTC
Wind: from the ENE (070 degrees) at 16 MPH (14 KT) gusting to 23 MPH (20 KT):0
Visibility: 10 mile(s):0
Sky conditions: overcast
Temperature: 59.9 F (15.5 C)
Dew Point: 57.2 F (14.0 C)
Relative Humidity: 90%
Pressure (altimeter): 30.18 in. Hg (1022 hPa)
Pressure tendency: 0.08 inches (2.8 hPa) higher than three hours ago
ob: KSVN 222356Z AUTO 07014G20KT 10SM OVC004 16/14 A3018 RMK AO2 CIG 003 RWY28 SLPNO T01550140 10293 20155 52028 FZRANO
cycle: 0

Station Type Date Time Source
KSVN TAF 2019/02/23 00:33 UTC NOAA

TAF
AMD KSVN 230020Z 2300/2406 07010G15KT 9999 BKN004 QNH3010INS
BECMG 2304/2305 07006KT 4800 BR OVC006 QNH3011INS
BECMG 2316/2317 09009KT 9999 NSW SCT008 BKN015 QNH3005INS TX24/2321Z TN15/2309Z


Example: see airport list